Time;durP1;ratioP1;P1;durP2;ratioP2;P2;SDS_P1;SDS_P2;PMS_P1;PMS_P2;Temp;Humidity;BMP_temperature;BMP_pressure;BME280_temperature;BME280_humidity;BME280_pressure;Samples;Min_cycle;Max_cycle;Signal;HPM_P1;HPM_P2
2021/05/28 00:01:34;;;;;;;15.63;11.20;;;9.50;99.90;;;;;;5017985;28;20464;-62
2021/05/28 00:04:03;;;;;;;16.80;11.60;;;9.50;99.90;;;;;;5009615;28;20905;-62
2021/05/28 00:06:34;;;;;;;14.10;11.40;;;9.50;99.90;;;;;;5017010;28;20507;-62
2021/05/28 00:09:00;;;;;;;14.30;10.63;;;9.50;99.90;;;;;;5017227;28;20463;-62
2021/05/28 00:11:28;;;;;;;15.00;11.10;;;9.50;99.90;;;;;;5017941;28;20525;-62
2021/05/28 00:13:55;;;;;;;14.93;10.13;;;9.50;99.90;;;;;;5016930;28;20467;-62
2021/05/28 00:16:22;;;;;;;11.57;10.37;;;9.50;99.90;;;;;;5017311;28;20901;-62
2021/05/28 00:18:53;;;;;;;13.00;10.80;;;9.50;99.90;;;;;;5018112;28;20439;-62
2021/05/28 00:21:19;;;;;;;19.70;12.50;;;9.60;99.90;;;;;;5017564;28;20908;-62
2021/05/28 00:23:50;;;;;;;12.40;10.17;;;9.50;99.90;;;;;;5017289;28;20460;-62
2021/05/28 00:26:17;;;;;;;15.87;11.30;;;9.50;99.90;;;;;;5017284;28;20546;-62
2021/05/28 00:28:48;;;;;;;17.50;10.97;;;9.50;99.90;;;;;;5019128;28;20496;-62
2021/05/28 00:31:15;;;;;;;12.83;10.80;;;9.50;99.90;;;;;;5021232;28;20467;-62
2021/05/28 00:33:42;;;;;;;11.57;10.37;;;9.50;99.90;;;;;;5020851;28;20467;-62
2021/05/28 00:36:08;;;;;;;16.83;11.17;;;9.50;99.90;;;;;;5020792;28;20446;-62
2021/05/28 00:38:35;;;;;;;16.33;11.87;;;9.60;99.90;;;;;;5020512;28;20460;-62
2021/05/28 00:41:02;;;;;;;12.77;11.47;;;9.60;99.90;;;;;;5021133;28;20457;-62
2021/05/28 00:43:29;;;;;;;16.20;11.90;;;9.50;99.90;;;;;;5020699;28;20446;-62
2021/05/28 00:45:56;;;;;;;16.17;14.57;;;9.50;99.90;;;;;;5021045;28;20498;-62
2021/05/28 00:48:23;;;;;;;18.43;12.80;;;9.40;99.90;;;;;;5020691;28;20487;-62
2021/05/28 00:50:53;;;;;;;13.53;12.20;;;9.40;99.90;;;;;;5020797;28;20762;-62
2021/05/28 00:53:23;;;;;;;23.07;14.97;;;9.40;99.90;;;;;;5020729;28;20464;-62
2021/05/28 00:55:50;;;;;;;15.40;13.90;;;9.40;99.90;;;;;;5021350;28;20617;-62
2021/05/28 00:58:19;;;;;;;16.30;14.43;;;9.40;99.90;;;;;;5020680;28;20550;-62
2021/05/28 01:00:48;;;;;;;18.83;15.47;;;9.40;99.90;;;;;;5020585;28;20468;-62
2021/05/28 01:03:15;;;;;;;20.20;13.80;;;9.40;99.90;;;;;;5020634;28;20466;-62
2021/05/28 01:05:42;;;;;;;17.87;15.70;;;9.40;99.90;;;;;;5012517;28;20468;-62
2021/05/28 01:08:09;;;;;;;23.80;15.30;;;9.40;99.90;;;;;;5018386;28;20492;-62
2021/05/28 01:10:35;;;;;;;18.27;15.43;;;9.40;99.90;;;;;;5020394;28;20460;-62
2021/05/28 01:13:06;;;;;;;29.87;17.20;;;9.40;99.90;;;;;;5020575;28;20460;-62
2021/05/28 01:15:38;;;;;;;21.83;19.00;;;9.30;99.90;;;;;;5020389;28;20792;-62
2021/05/28 01:18:05;;;;;;;22.73;18.47;;;9.20;99.90;;;;;;5020007;28;20734;-62
2021/05/28 01:20:33;;;;;;;20.87;18.67;;;9.30;99.90;;;;;;5020214;28;20471;-62
2021/05/28 01:23:03;;;;;;;28.53;18.03;;;9.20;99.90;;;;;;5019929;28;20480;-62
2021/05/28 01:25:32;;;;;;;21.40;18.63;;;9.20;99.90;;;;;;5020067;28;20452;-62
2021/05/28 01:27:59;;;;;;;21.60;19.30;;;9.20;99.90;;;;;;5019924;28;20558;-62
2021/05/28 01:30:28;;;;;;;30.17;19.57;;;9.20;99.90;;;;;;5020015;28;20467;-62
2021/05/28 01:32:55;;;;;;;20.83;18.43;;;9.20;99.90;;;;;;5019967;28;20445;-62
2021/05/28 01:35:23;;;;;;;26.10;20.83;;;9.20;99.90;;;;;;5019878;28;20483;-62
2021/05/28 01:37:50;;;;;;;24.30;18.53;;;9.20;99.90;;;;;;5020054;28;20459;-62
2021/05/28 01:40:19;;;;;;;24.70;21.30;;;9.20;99.90;;;;;;5019338;28;20542;-62
2021/05/28 01:42:50;;;;;;;24.93;19.13;;;9.20;99.90;;;;;;5019248;28;20471;-62
2021/05/28 01:45:17;;;;;;;24.43;19.53;;;9.20;99.90;;;;;;5019590;28;20486;-62
2021/05/28 01:47:44;;;;;;;23.40;19.73;;;9.20;99.90;;;;;;5019948;28;20495;-62
2021/05/28 01:50:12;;;;;;;24.87;20.37;;;9.20;99.90;;;;;;5019628;28;20485;-64
2021/05/28 01:52:40;;;;;;;31.77;21.37;;;9.20;99.90;;;;;;5019633;28;20461;-62
2021/05/28 01:55:09;;;;;;;24.70;20.30;;;9.20;99.90;;;;;;5019807;28;20546;-62
2021/05/28 01:57:37;;;;;;;27.20;20.50;;;9.20;99.90;;;;;;5019853;28;20460;-62
2021/05/28 02:00:06;;;;;;;24.07;19.33;;;9.10;99.90;;;;;;5019157;28;20468;-62
2021/05/28 02:02:33;;;;;;;26.40;20.20;;;9.10;99.90;;;;;;5015951;28;20474;-62
2021/05/28 02:05:01;;;;;;;25.87;20.77;;;9.10;99.90;;;;;;5013827;28;20471;-62
2021/05/28 02:07:28;;;;;;;27.30;20.70;;;9.10;99.90;;;;;;5019596;28;20911;-62
2021/05/28 02:09:54;;;;;;;25.37;19.90;;;9.20;99.90;;;;;;5018717;28;20481;-62
2021/05/28 02:12:22;;;;;;;24.37;20.93;;;9.20;99.90;;;;;;5018966;28;20470;-62
2021/05/28 02:14:50;;;;;;;24.60;21.50;;;9.20;99.90;;;;;;5018922;28;20468;-62
2021/05/28 02:17:17;;;;;;;27.93;22.13;;;9.20;99.90;;;;;;5019834;28;20495;-62
2021/05/28 02:19:44;;;;;;;26.57;21.40;;;9.20;99.90;;;;;;5019559;28;20567;-62
2021/05/28 02:22:11;;;;;;;25.83;22.83;;;9.20;99.90;;;;;;5018731;28;20885;-62
2021/05/28 02:24:40;;;;;;;26.13;21.07;;;9.20;99.90;;;;;;5019277;28;20790;-63
2021/05/28 02:27:07;;;;;;;26.70;22.47;;;9.20;99.90;;;;;;5019685;28;20874;-63
2021/05/28 02:29:34;;;;;;;25.57;20.73;;;9.30;99.90;;;;;;5018698;28;20464;-63
2021/05/28 02:32:01;;;;;;;23.60;19.80;;;9.30;99.90;;;;;;5018664;28;21333;-63
2021/05/28 02:34:28;;;;;;;25.50;21.23;;;9.30;99.90;;;;;;5018844;28;20471;-63
2021/05/28 02:36:56;;;;;;;23.80;21.17;;;9.40;99.90;;;;;;5019298;28;20907;-63
2021/05/28 02:39:23;;;;;;;25.57;20.70;;;9.40;99.90;;;;;;5018574;28;25163;-63
2021/05/28 02:41:51;;;;;;;23.63;20.60;;;9.30;99.90;;;;;;5019008;28;20443;-63
2021/05/28 02:44:18;;;;;;;24.77;22.00;;;9.30;99.90;;;;;;5018244;28;20471;-63
2021/05/28 02:46:45;;;;;;;25.60;21.63;;;9.30;99.90;;;;;;5018430;28;20498;-63
2021/05/28 02:49:13;;;;;;;34.87;24.37;;;9.30;99.90;;;;;;5018656;28;20913;-63
2021/05/28 02:51:40;;;;;;;28.33;22.20;;;9.30;99.90;;;;;;5017529;28;20566;-63
2021/05/28 02:54:07;;;;;;;26.87;21.73;;;9.30;99.90;;;;;;5018346;28;20519;-63
2021/05/28 02:56:33;;;;;;;34.53;23.17;;;9.30;99.90;;;;;;5018266;28;20464;-63
2021/05/28 02:59:00;;;;;;;28.60;23.90;;;9.30;99.90;;;;;;5018387;28;20464;-63
2021/05/28 03:01:26;;;;;;;31.60;23.57;;;9.30;99.90;;;;;;5018580;28;20769;-63
2021/05/28 03:03:56;;;;;;;30.43;23.47;;;9.30;99.90;;;;;;5010576;28;20974;-63
2021/05/28 03:06:24;;;;;;;27.20;22.00;;;9.20;99.90;;;;;;5013398;28;20468;-63
2021/05/28 03:08:51;;;;;;;30.80;23.67;;;9.10;99.90;;;;;;5017882;28;20459;-63
2021/05/28 03:11:17;;;;;;;28.87;23.80;;;9.10;99.90;;;;;;5017976;28;20916;-63
2021/05/28 03:13:44;;;;;;;30.40;23.70;;;9.10;99.90;;;;;;5018105;28;20750;-63
2021/05/28 03:16:12;;;;;;;30.63;23.00;;;9.10;99.90;;;;;;5018260;28;20487;-63
2021/05/28 03:18:47;;;;;;;30.00;24.00;;;9.10;99.90;;;;;;5018114;28;20461;-63
2021/05/28 03:21:21;;;;;;;30.30;22.90;;;9.00;99.90;;;;;;5018031;28;20845;-63
2021/05/28 03:23:50;;;;;;;32.47;24.10;;;9.00;99.90;;;;;;5018466;28;20817;-63
2021/05/28 03:26:16;;;;;;;28.47;23.90;;;9.00;99.90;;;;;;5017602;28;20471;-63
2021/05/28 03:28:43;;;;;;;29.73;23.93;;;9.00;99.90;;;;;;5017546;28;20491;-63
2021/05/28 03:31:10;;;;;;;30.53;24.03;;;9.00;99.90;;;;;;5017489;28;20820;-63
2021/05/28 03:33:37;;;;;;;27.83;21.57;;;9.00;99.90;;;;;;5018205;28;20889;-63
2021/05/28 03:36:05;;;;;;;25.50;20.20;;;9.00;99.90;;;;;;5017315;28;20464;-63
2021/05/28 03:38:32;;;;;;;22.23;18.97;;;9.00;99.90;;;;;;5017519;28;20459;-63
2021/05/28 03:40:59;;;;;;;24.27;19.60;;;9.00;99.90;;;;;;5017323;28;20776;-63
2021/05/28 03:43:26;;;;;;;22.70;19.53;;;9.00;99.90;;;;;;5017808;28;20484;-63
2021/05/28 03:45:53;;;;;;;23.07;20.60;;;9.00;99.90;;;;;;5017782;28;20468;-63
2021/05/28 03:48:19;;;;;;;25.33;19.07;;;9.00;99.90;;;;;;5017697;28;20473;-63
2021/05/28 03:50:46;;;;;;;25.00;20.43;;;9.00;99.90;;;;;;5017262;28;20468;-63
2021/05/28 03:53:13;;;;;;;21.83;19.30;;;9.00;99.90;;;;;;5017818;28;20489;-63
2021/05/28 03:55:40;;;;;;;21.20;18.43;;;9.00;99.90;;;;;;5017935;28;20471;-63
2021/05/28 03:58:09;;;;;;;23.23;20.73;;;9.00;99.90;;;;;;5017789;28;20483;-63
2021/05/28 04:00:39;;;;;;;26.23;20.33;;;9.00;99.90;;;;;;5017646;28;20887;-63
2021/05/28 04:03:08;;;;;;;21.87;19.57;;;9.00;99.90;;;;;;5014334;28;20958;-63
2021/05/28 04:05:35;;;;;;;22.40;19.47;;;9.10;99.90;;;;;;5019285;28;20483;-63
2021/05/28 04:08:02;;;;;;;20.70;18.47;;;9.10;99.90;;;;;;5021083;28;20546;-63
2021/05/28 04:10:31;;;;;;;23.70;19.40;;;9.00;99.90;;;;;;5021356;28;20479;-63
2021/05/28 04:12:57;;;;;;;24.83;22.33;;;9.10;99.90;;;;;;5021997;28;20452;-63
2021/05/28 04:15:25;;;;;;;23.93;20.50;;;9.00;99.90;;;;;;5021672;28;20439;-63
2021/05/28 04:17:52;;;;;;;24.93;22.27;;;9.00;99.90;;;;;;5020969;28;25107;-63
2021/05/28 04:20:18;;;;;;;24.63;21.33;;;9.00;99.90;;;;;;5021356;28;20547;-63
2021/05/28 04:22:45;;;;;;;27.10;21.37;;;9.00;99.90;;;;;;5020552;28;20457;-63
2021/05/28 04:25:13;;;;;;;23.20;19.80;;;9.10;99.90;;;;;;5021471;28;20442;-63
2021/05/28 04:27:39;;;;;;;29.73;20.47;;;9.10;99.90;;;;;;5021060;28;20594;-63
2021/05/28 04:30:07;;;;;;;21.97;19.70;;;9.20;99.90;;;;;;5021280;28;20897;-63
2021/05/28 04:32:37;;;;;;;24.63;20.70;;;9.20;99.90;;;;;;5020989;28;20463;-63
2021/05/28 04:35:04;;;;;;;25.70;20.60;;;9.30;99.90;;;;;;5021310;28;20924;-63
2021/05/28 04:37:31;;;;;;;24.93;20.00;;;9.20;99.90;;;;;;5020897;28;20769;-63
2021/05/28 04:39:57;;;;;;;22.83;20.03;;;9.30;99.90;;;;;;5021254;28;20463;-63
2021/05/28 04:42:24;;;;;;;19.30;16.87;;;9.30;99.90;;;;;;5020595;28;20463;-63
2021/05/28 04:44:50;;;;;;;24.50;18.10;;;9.30;99.90;;;;;;5020965;28;20474;-63
2021/05/28 04:47:17;;;;;;;28.63;19.47;;;9.30;99.90;;;;;;5021061;28;20495;-63
2021/05/28 04:49:46;;;;;;;24.10;18.23;;;9.40;99.90;;;;;;5020966;28;20482;-63
2021/05/28 04:52:15;;;;;;;19.90;17.80;;;9.40;99.90;;;;;;5020906;28;20525;-63
2021/05/28 04:54:42;;;;;;;21.90;19.03;;;9.40;99.90;;;;;;5020815;28;20836;-62
2021/05/28 04:57:10;;;;;;;28.07;19.70;;;9.50;99.90;;;;;;5020989;28;20463;-62
2021/05/28 04:59:39;;;;;;;23.70;18.43;;;9.60;99.90;;;;;;5020721;28;20500;-62
2021/05/28 05:02:06;;;;;;;20.07;17.90;;;9.60;99.90;;;;;;5020319;28;20523;-62
2021/05/28 05:04:33;;;;;;;18.77;16.57;;;9.60;99.90;;;;;;5011089;28;20443;-62
2021/05/28 05:07:03;;;;;;;18.23;15.63;;;9.60;99.90;;;;;;5020093;28;20491;-62
2021/05/28 05:09:29;;;;;;;24.17;17.23;;;9.70;99.90;;;;;;5020387;28;20434;-62
2021/05/28 05:11:56;;;;;;;19.50;17.40;;;9.80;99.90;;;;;;5020354;28;20468;-62
2021/05/28 05:14:25;;;;;;;18.43;16.53;;;9.90;99.90;;;;;;5019148;28;20812;-62
2021/05/28 05:16:51;;;;;;;21.23;17.30;;;10.00;99.90;;;;;;5020106;28;20467;-62
2021/05/28 05:19:17;;;;;;;20.93;16.00;;;9.90;99.90;;;;;;5019794;28;20982;-62
2021/05/28 05:21:46;;;;;;;22.63;16.23;;;9.90;99.90;;;;;;5019756;28;20456;-62
2021/05/28 05:24:16;;;;;;;19.87;14.47;;;9.70;99.90;;;;;;5019742;28;20463;-62
2021/05/28 05:26:43;;;;;;;19.07;14.57;;;9.80;99.90;;;;;;5019940;28;20499;-62
2021/05/28 05:29:12;;;;;;;16.37;14.40;;;9.80;99.90;;;;;;5019426;28;20491;-62
2021/05/28 05:31:40;;;;;;;19.47;15.07;;;9.90;99.90;;;;;;5020113;28;20753;-62
2021/05/28 05:34:09;;;;;;;18.30;13.50;;;9.90;99.90;;;;;;5019480;28;20475;-62
2021/05/28 05:36:39;;;;;;;19.10;14.77;;;10.00;99.90;;;;;;5020001;28;20460;-62
2021/05/28 05:39:08;;;;;;;17.60;15.33;;;10.20;99.90;;;;;;5019113;28;20463;-62
2021/05/28 05:41:36;;;;;;;14.53;12.80;;;10.30;99.90;;;;;;5019823;28;20563;-62
2021/05/28 05:44:03;;;;;;;18.73;13.73;;;10.30;99.90;;;;;;5019735;28;20463;-62
2021/05/28 05:46:30;;;;;;;16.50;12.90;;;10.50;99.90;;;;;;5019521;28;20872;-62
2021/05/28 05:48:57;;;;;;;15.20;12.17;;;10.60;99.90;;;;;;5019335;28;20464;-62
2021/05/28 05:51:23;;;;;;;19.23;11.63;;;10.60;99.90;;;;;;5019646;28;20463;-62
2021/05/28 05:53:53;;;;;;;16.77;13.57;;;10.70;99.90;;;;;;5019628;28;20464;-62
2021/05/28 05:56:20;;;;;;;13.43;11.83;;;11.00;99.90;;;;;;5020219;28;20476;-62
2021/05/28 05:58:50;;;;;;;16.70;12.33;;;11.20;99.90;;;;;;5019412;28;20460;-62
2021/05/28 06:01:17;;;;;;;16.07;12.20;;;11.50;99.90;;;;;;5019479;28;20464;-62
2021/05/28 06:03:43;;;;;;;13.10;11.57;;;11.70;99.90;;;;;;5010542;28;20476;-62
2021/05/28 06:06:12;;;;;;;14.87;11.43;;;11.90;99.90;;;;;;5018218;28;20491;-62
2021/05/28 06:08:39;;;;;;;16.27;13.53;;;12.20;99.90;;;;;;5018487;28;20838;-62
2021/05/28 06:11:05;;;;;;;13.27;11.87;;;12.30;99.90;;;;;;5018760;28;20464;-62
2021/05/28 06:13:35;;;;;;;12.30;11.00;;;12.50;99.90;;;;;;5018920;28;20456;-62
2021/05/28 06:16:05;;;;;;;11.07;9.90;;;12.60;99.90;;;;;;5018668;28;20470;-62
2021/05/28 06:18:32;;;;;;;12.47;11.20;;;12.80;99.90;;;;;;5019121;28;20468;-62
2021/05/28 06:21:01;;;;;;;14.77;10.30;;;13.00;99.90;;;;;;5018629;28;20460;-62
2021/05/28 06:23:28;;;;;;;13.27;11.90;;;13.20;99.90;;;;;;5019520;28;20464;-62
2021/05/28 06:25:57;;;;;;;11.77;10.53;;;13.40;99.90;;;;;;5017297;28;20761;-62
2021/05/28 06:28:23;;;;;;;11.17;10.07;;;13.60;99.90;;;;;;5018369;28;20557;-61
2021/05/28 06:30:50;;;;;;;13.17;10.47;;;13.70;99.90;;;;;;5018370;28;20463;-61
2021/05/28 06:33:20;;;;;;;12.43;11.23;;;14.00;99.90;;;;;;5018881;28;20740;-61
2021/05/28 06:35:47;;;;;;;10.70;9.27;;;14.30;99.90;;;;;;5018136;28;20827;-61
2021/05/28 06:38:13;;;;;;;10.43;9.37;;;14.50;99.90;;;;;;5018132;28;20464;-61
2021/05/28 06:40:46;;;;;;;9.67;8.77;;;14.70;99.90;;;;;;5018725;28;20491;-60
2021/05/28 06:43:12;;;;;;;10.53;9.53;;;15.00;99.90;;;;;;5018514;28;20472;-60
2021/05/28 06:45:42;;;;;;;9.60;7.90;;;15.10;99.90;;;;;;5018583;28;20445;-60
2021/05/28 06:48:09;;;;;;;10.60;8.17;;;15.20;99.90;;;;;;5018331;28;20495;-59
2021/05/28 06:50:39;;;;;;;11.00;8.80;;;15.30;99.90;;;;;;5018328;28;20871;-59
2021/05/28 06:53:06;;;;;;;10.60;8.63;;;15.50;99.90;;;;;;5018612;28;20468;-59
2021/05/28 06:55:33;;;;;;;9.33;8.43;;;15.70;99.90;;;;;;5018010;28;20912;-59
2021/05/28 06:58:00;;;;;;;9.47;8.67;;;15.90;99.90;;;;;;5018088;28;20460;-59
2021/05/28 07:00:26;;;;;;;9.90;8.90;;;16.10;99.90;;;;;;5017976;28;20464;-60
2021/05/28 07:02:55;;;;;;;9.00;8.20;;;16.40;99.90;;;;;;5014092;28;20954;-60
2021/05/28 07:05:24;;;;;;;8.63;7.83;;;16.60;99.90;;;;;;5013917;28;20567;-61
2021/05/28 07:07:51;;;;;;;9.17;8.10;;;16.60;99.90;;;;;;5018057;28;20764;-60
2021/05/28 07:10:18;;;;;;;9.77;7.77;;;16.80;99.90;;;;;;4998169;28;20461;-60
2021/05/28 07:12:51;;;;;;;8.57;7.73;;;16.90;99.90;;;;;;5003142;28;20764;-60
2021/05/28 07:15:18;;;;;;;8.40;7.60;;;17.10;99.90;;;;;;5017519;28;20558;-59
2021/05/28 07:17:48;;;;;;;8.20;7.60;;;16.90;99.90;;;;;;5017266;28;20772;-59
2021/05/28 07:20:17;;;;;;;8.47;7.57;;;16.90;99.90;;;;;;5006531;28;20472;-60
2021/05/28 07:22:44;;;;;;;9.37;7.63;;;16.90;99.90;;;;;;5008800;28;20467;-59
2021/05/28 07:25:14;;;;;;;8.40;7.03;;;16.60;99.90;;;;;;5006276;28;20473;-59
2021/05/28 07:27:43;;;;;;;7.70;7.00;;;16.90;99.90;;;;;;5009610;28;20500;-60
2021/05/28 07:30:11;;;;;;;8.00;7.30;;;17.10;99.90;;;;;;5015883;28;20472;-57
2021/05/28 07:32:40;;;;;;;7.93;7.23;;;17.70;99.90;;;;;;5016663;28;20464;-59
2021/05/28 07:35:10;;;;;;;8.07;7.37;;;18.00;99.90;;;;;;5017151;28;20827;-59
2021/05/28 07:37:37;;;;;;;11.93;7.57;;;18.10;99.90;;;;;;5016582;28;20468;-59
2021/05/28 07:40:04;;;;;;;7.43;6.73;;;17.90;99.30;;;;;;5016673;28;20751;-60
2021/05/28 07:42:35;;;;;;;9.57;7.70;;;17.40;99.90;;;;;;5017553;28;20569;-60
2021/05/28 07:45:02;;;;;;;8.40;7.50;;;16.80;99.90;;;;;;5017683;28;20464;-60
2021/05/28 07:47:35;;;;;;;7.73;6.80;;;16.50;99.90;;;;;;5017581;28;20484;-60
2021/05/28 07:50:04;;;;;;;7.97;7.00;;;16.70;99.90;;;;;;5017067;28;20472;-60
2021/05/28 07:52:33;;;;;;;7.60;6.67;;;16.10;99.90;;;;;;5017147;28;20472;-60
2021/05/28 07:55:00;;;;;;;6.93;5.80;;;15.80;99.90;;;;;;5017835;28;20494;-60
2021/05/28 07:57:26;;;;;;;6.67;6.07;;;15.20;99.90;;;;;;5017302;28;20534;-60
2021/05/28 07:59:54;;;;;;;7.03;6.43;;;14.90;99.90;;;;;;5017610;28;20472;-60
2021/05/28 08:40:36;;;;;;;4.30;3.90;;;17.50;99.90;;;;;;4816186;22;20495;-61
2021/05/28 08:43:07;;;;;;;4.33;4.03;;;16.90;96.30;;;;;;5041544;28;20519;-61
2021/05/28 08:45:35;;;;;;;5.20;4.67;;;17.10;94.80;;;;;;5056428;28;20462;-61
2021/05/28 08:48:03;;;;;;;5.20;4.47;;;17.60;99.90;;;;;;5056822;28;20918;-61
2021/05/28 08:50:29;;;;;;;7.40;4.90;;;18.30;94.10;;;;;;5059596;28;20465;-61
2021/05/28 09:34:28;;;;;;;5.80;5.30;;;20.30;80.20;;;;;;5387961;23;21504;-61
2021/05/28 09:37:10;;;;;;;5.00;4.53;;;20.60;81.20;;;;;;5020835;28;20850;-61
2021/05/28 09:39:36;;;;;;;4.47;4.17;;;20.90;73.90;;;;;;5019028;28;20467;-61
2021/05/28 09:42:07;;;;;;;5.37;4.80;;;21.20;71.00;;;;;;5019609;28;20463;-62
2021/05/28 09:44:34;;;;;;;5.40;5.00;;;21.10;70.90;;;;;;5019374;28;20502;-61
2021/05/28 09:47:11;;;;;;;4.97;4.47;;;20.50;68.40;;;;;;5019489;28;20460;-61
2021/05/28 09:49:40;;;;;;;4.30;3.90;;;21.30;77.00;;;;;;5019461;28;20464;-61
2021/05/28 09:52:10;;;;;;;4.60;4.20;;;21.80;70.10;;;;;;5019695;28;20464;-60
2021/05/28 09:54:37;;;;;;;5.60;5.07;;;21.50;67.50;;;;;;5019202;28;20459;-61
2021/05/28 09:57:05;;;;;;;5.50;5.00;;;20.60;72.50;;;;;;5019560;28;20889;-61
2021/05/28 09:59:45;;;;;;;7.13;4.90;;;21.10;71.20;;;;;;5019707;28;20464;-61
2021/05/28 10:02:29;;;;;;;6.00;5.50;;;21.10;70.30;;;;;;5019012;28;20903;-61
2021/05/28 10:04:58;;;;;;;6.20;5.43;;;20.60;66.30;;;;;;5013093;28;20518;-61
2021/05/28 10:07:26;;;;;;;6.30;5.70;;;19.90;69.80;;;;;;5018873;28;20829;-61
2021/05/28 10:09:59;;;;;;;5.47;4.97;;;20.70;70.70;;;;;;5018888;28;20751;-61
2021/05/28 10:12:26;;;;;;;5.67;5.17;;;20.90;69.60;;;;;;5018739;28;20881;-61
2021/05/28 10:14:53;;;;;;;4.90;4.40;;;20.80;67.40;;;;;;5018778;28;20468;-61
2021/05/28 10:17:21;;;;;;;5.40;4.90;;;21.00;68.50;;;;;;5019539;28;20456;-62
2021/05/28 10:19:49;;;;;;;9.33;4.87;;;21.40;66.30;;;;;;5019309;28;20464;-62
2021/05/28 10:22:17;;;;;;;5.17;4.77;;;21.10;65.60;;;;;;5018362;28;20460;-62
2021/05/28 10:24:47;;;;;;;6.30;4.70;;;21.90;67.80;;;;;;5018715;28;20463;-62
2021/05/28 10:27:20;;;;;;;5.40;4.57;;;21.70;63.70;;;;;;5019245;28;20498;-62
2021/05/28 10:29:49;;;;;;;8.57;5.00;;;20.90;62.10;;;;;;5018901;28;20464;-62
2021/05/28 10:32:16;;;;;;;5.43;5.00;;;19.40;64.80;;;;;;5017200;28;20461;-62
2021/05/28 10:35:10;;;;;;;5.73;5.20;;;18.80;66.90;;;;;;5017020;28;20488;-62
2021/05/28 10:37:42;;;;;;;5.40;4.90;;;19.40;71.60;;;;;;5017981;28;20488;-62
2021/05/28 10:40:26;;;;;;;5.50;5.10;;;20.50;70.10;;;;;;5016705;28;20459;-62
2021/05/28 11:17:25;;;;;;;5.30;4.90;;;21.00;62.10;;;;;;3981127;23;20949;-62
2021/05/28 11:20:01;;;;;;;6.50;5.63;;;21.60;64.60;;;;;;5018021;28;20888;-62
2021/05/28 11:22:35;;;;;;;6.33;5.83;;;21.80;63.10;;;;;;5017321;28;20506;-62
2021/05/28 11:25:06;;;;;;;5.97;5.37;;;22.20;60.00;;;;;;5017915;28;20567;-61
2021/05/28 11:27:43;;;;;;;6.63;6.07;;;22.20;61.20;;;;;;5017575;28;20491;-61
2021/05/28 11:30:35;;;;;;;5.67;5.13;;;22.10;61.10;;;;;;5016735;28;20521;-60
2021/05/28 11:33:03;;;;;;;6.80;5.60;;;20.60;61.00;;;;;;4974216;28;20900;-60
2021/05/28 11:35:37;;;;;;;6.97;6.40;;;20.50;63.10;;;;;;5017410;28;20471;-60
2021/05/28 11:38:05;;;;;;;5.50;4.90;;;20.70;63.80;;;;;;5017173;28;20574;-61
2021/05/28 11:40:38;;;;;;;5.80;5.30;;;21.80;63.70;;;;;;5017651;28;20582;-61
2021/05/28 11:43:07;;;;;;;5.10;4.70;;;22.50;60.30;;;;;;5015296;28;20465;-60
2021/05/28 11:45:38;;;;;;;7.03;5.30;;;22.10;58.70;;;;;;5006663;28;20527;-61
2021/05/28 11:48:10;;;;;;;5.80;5.37;;;21.80;58.70;;;;;;5007887;28;20502;-60
2021/05/28 11:50:40;;;;;;;5.70;5.20;;;22.00;59.40;;;;;;5017220;28;20503;-60
2021/05/28 11:53:08;;;;;;;5.30;4.80;;;21.10;57.80;;;;;;5000398;28;20471;-60
2021/05/28 11:55:44;;;;;;;6.03;5.50;;;21.70;59.30;;;;;;4997626;28;20475;-60
2021/05/28 11:58:12;;;;;;;5.20;4.90;;;22.20;59.50;;;;;;4997203;28;20559;-60
2021/05/28 12:00:39;;;;;;;5.60;5.10;;;23.00;58.00;;;;;;4998157;28;20468;-60
2021/05/28 12:03:08;;;;;;;5.27;4.77;;;22.70;57.30;;;;;;4999270;28;20477;-58
2021/05/28 12:05:41;;;;;;;9.80;5.60;;;22.40;55.60;;;;;;5014570;28;20574;-59
2021/05/28 12:08:21;;;;;;;6.50;4.73;;;21.60;55.50;;;;;;5016832;28;20480;-60
2021/05/28 12:48:59;;;;;;;3.60;3.30;;;23.10;50.60;;;;;;3984969;22;20589;-59
2021/05/28 12:51:31;;;;;;;5.30;4.80;;;23.90;50.90;;;;;;5041109;28;20556;-60
2021/05/28 12:53:59;;;;;;;6.17;5.67;;;24.50;50.00;;;;;;5040879;28;20517;-59
2021/05/28 12:56:28;;;;;;;7.07;4.80;;;24.20;48.60;;;;;;5040087;28;20553;-59
2021/05/28 12:58:58;;;;;;;6.20;5.57;;;24.00;49.50;;;;;;5028939;28;20570;-59
2021/05/28 13:01:28;;;;;;;5.97;5.43;;;24.00;48.90;;;;;;5027044;28;20914;-57
2021/05/28 13:04:01;;;;;;;4.60;4.20;;;23.30;47.50;;;;;;5032810;28;20534;-59
2021/05/28 13:06:33;;;;;;;5.70;5.30;;;23.90;49.40;;;;;;5029064;28;20463;-59
2021/05/28 13:09:09;;;;;;;4.97;4.57;;;23.80;48.30;;;;;;5038895;28;20494;-59
2021/05/28 13:11:57;;;;;;;4.43;4.03;;;23.60;48.90;;;;;;5039239;28;20433;-59
2021/05/28 13:14:29;;;;;;;4.60;4.20;;;23.50;48.20;;;;;;5039253;28;20792;-58
2021/05/28 13:16:56;;;;;;;3.90;3.60;;;24.00;48.20;;;;;;5040018;28;20739;-56
2021/05/28 13:19:24;;;;;;;3.70;3.50;;;23.60;45.90;;;;;;5040150;28;20470;-57
2021/05/28 13:21:54;;;;;;;3.57;3.27;;;23.40;46.30;;;;;;5039384;28;20466;-58
2021/05/28 14:03:49;;;;;;;4.10;3.80;;;24.10;45.10;;;;;;5063801;22;20549;-58
2021/05/28 14:06:16;;;;;;;4.37;4.00;;;23.80;44.30;;;;;;5014929;28;20468;-56
2021/05/28 14:08:43;;;;;;;4.27;3.90;;;23.60;45.70;;;;;;5017937;28;20518;-56
2021/05/28 14:11:20;;;;;;;4.23;3.90;;;23.80;45.30;;;;;;5018480;28;20445;-55
2021/05/28 14:13:49;;;;;;;4.07;3.70;;;23.70;44.80;;;;;;5018435;28;20492;-55
2021/05/28 14:16:16;;;;;;;5.57;3.33;;;23.50;44.20;;;;;;5018317;28;20471;-54
2021/05/28 14:18:42;;;;;;;4.80;4.30;;;21.70;44.90;;;;;;5019039;28;20460;-57
2021/05/28 14:21:10;;;;;;;7.60;5.07;;;21.90;46.80;;;;;;5018768;28;20475;-57
2021/05/28 14:23:39;;;;;;;3.63;3.43;;;21.10;46.40;;;;;;5018759;28;20943;-58
2021/05/28 14:26:06;;;;;;;3.40;3.20;;;21.90;46.60;;;;;;5018893;28;20468;-57
2021/05/28 14:28:33;;;;;;;3.73;3.43;;;22.40;46.30;;;;;;5018967;28;20531;-55
2021/05/28 14:31:01;;;;;;;4.13;3.83;;;22.70;45.10;;;;;;5018779;28;20555;-56
2021/05/28 14:33:47;;;;;;;4.07;3.67;;;22.80;44.50;;;;;;5017717;28;20858;-59
2021/05/28 14:36:18;;;;;;;3.80;3.60;;;22.90;44.20;;;;;;5017081;28;20464;-55
2021/05/28 14:38:45;;;;;;;3.80;3.50;;;23.10;44.20;;;;;;5016975;28;20459;-55
2021/05/28 14:41:12;;;;;;;3.10;2.90;;;22.30;44.10;;;;;;5016587;28;20464;-57
2021/05/28 14:43:40;;;;;;;3.07;2.77;;;21.70;44.80;;;;;;5018686;28;20468;-57
2021/05/28 14:46:06;;;;;;;3.13;2.93;;;22.40;46.80;;;;;;5017944;28;20464;-58
2021/05/28 14:48:33;;;;;;;3.53;3.33;;;22.80;47.00;;;;;;5017636;28;20574;-57
2021/05/28 14:51:00;;;;;;;3.13;2.93;;;22.70;45.40;;;;;;5017846;28;20464;-57
2021/05/28 14:53:27;;;;;;;3.20;3.00;;;23.00;44.90;;;;;;5017810;28;20826;-57
2021/05/28 14:55:54;;;;;;;3.43;3.00;;;23.20;45.50;;;;;;5017610;28;20474;-57
2021/05/28 14:58:21;;;;;;;3.87;3.40;;;23.40;46.00;;;;;;5017988;28;20460;-58
2021/05/28 15:00:47;;;;;;;3.43;3.23;;;22.80;45.10;;;;;;5017561;28;20468;-55
2021/05/28 15:03:14;;;;;;;3.57;3.37;;;22.80;46.00;;;;;;5010801;28;20508;-58
2021/05/28 15:05:45;;;;;;;3.50;3.20;;;22.90;46.10;;;;;;5012736;28;20504;-57
2021/05/28 15:08:11;;;;;;;4.30;3.20;;;22.90;46.90;;;;;;5015930;28;20492;-55
2021/05/28 15:10:39;;;;;;;4.07;3.00;;;23.20;46.20;;;;;;5016142;28;20497;-57
2021/05/28 15:13:06;;;;;;;3.20;2.90;;;23.20;46.10;;;;;;5016916;28;20460;-58
2021/05/28 15:15:33;;;;;;;3.20;2.90;;;23.50;46.70;;;;;;5017747;28;21077;-58
2021/05/28 15:18:00;;;;;;;2.80;2.70;;;23.30;45.90;;;;;;5018138;28;20468;-58
2021/05/28 15:20:29;;;;;;;3.10;2.90;;;23.10;46.20;;;;;;5017752;28;20970;-58
2021/05/28 15:22:56;;;;;;;3.40;3.07;;;23.00;47.30;;;;;;5015971;28;20487;-59
2021/05/28 15:25:22;;;;;;;2.90;2.70;;;23.00;46.80;;;;;;5017828;28;20470;-59
2021/05/28 15:27:49;;;;;;;3.10;2.90;;;23.20;46.80;;;;;;5017839;28;20487;-59
2021/05/28 15:30:16;;;;;;;3.93;3.63;;;23.40;46.70;;;;;;5018047;28;20476;-58
2021/05/28 15:32:43;;;;;;;3.03;2.83;;;23.50;47.00;;;;;;5018108;28;20901;-58
2021/05/28 15:35:11;;;;;;;2.77;2.60;;;23.50;46.90;;;;;;5018122;28;20526;-58
2021/05/28 15:37:39;;;;;;;3.03;2.83;;;22.90;46.90;;;;;;5017724;28;20460;-57
2021/05/28 15:40:06;;;;;;;3.07;2.87;;;22.10;45.70;;;;;;5017212;28;20596;-58
2021/05/28 15:42:33;;;;;;;2.73;2.50;;;22.10;46.40;;;;;;5018081;28;20463;-55
2021/05/28 15:45:01;;;;;;;2.77;2.67;;;22.30;46.10;;;;;;5009975;28;20772;-58
2021/05/28 15:47:27;;;;;;;3.10;2.90;;;22.30;46.60;;;;;;5002341;28;20895;-57
2021/05/28 15:49:54;;;;;;;3.57;3.27;;;21.50;47.00;;;;;;5017320;28;20472;-57
2021/05/28 15:52:23;;;;;;;3.30;3.10;;;21.30;47.90;;;;;;5008404;28;20746;-57
2021/05/28 15:54:50;;;;;;;3.10;2.90;;;20.80;48.20;;;;;;4997560;28;20523;-58
2021/05/28 15:57:18;;;;;;;3.33;3.10;;;21.00;48.70;;;;;;4997929;28;20767;-57
2021/05/28 15:59:46;;;;;;;3.50;3.30;;;21.60;49.60;;;;;;4997627;28;20755;-58